createdAt,value
2018-02-10T00:01:56.993Z,50.40
2018-02-10T00:04:34.590Z,55.30
2018-02-10T00:07:13.345Z,51.47
2018-02-10T00:09:47.343Z,52.42
2018-02-10T00:12:25.731Z,55.05
2018-02-10T00:15:05.773Z,59.90
2018-02-10T00:17:44.190Z,58.95
2018-02-10T00:20:22.794Z,54.20
2018-02-10T00:23:03.810Z,47.88
2018-02-10T00:25:43.432Z,51.85
2018-02-10T00:28:17.025Z,49.40
2018-02-10T00:30:51.117Z,51.40
2018-02-10T00:33:24.857Z,52.65
2018-02-10T00:35:57.912Z,50.58
2018-02-10T00:38:37.215Z,52.92
2018-02-10T00:41:16.333Z,51.88
2018-02-10T00:43:57.892Z,56.75
2018-02-10T00:46:38.197Z,57.50
2018-02-10T00:49:17.853Z,48.17
2018-02-10T00:51:58.725Z,54.63
2018-02-10T00:54:39.950Z,53.25
2018-02-10T00:57:14.070Z,49.58
2018-02-10T00:59:54.374Z,53.10
2018-02-10T01:02:32.293Z,52.53
2018-02-10T01:05:11.596Z,55.55
2018-02-10T01:07:50.510Z,49.35
2018-02-10T01:10:32.785Z,55.03
2018-02-10T01:13:12.650Z,58.95
2018-02-10T01:15:53.964Z,53.25
2018-02-10T01:18:27.210Z,52.10
2018-02-10T01:21:10.279Z,47.85
2018-02-10T01:23:47.555Z,50.72
2018-02-10T01:26:28.515Z,44.35
2018-02-10T01:29:06.927Z,62.08
2018-02-10T01:31:48.306Z,49.17
2018-02-10T01:34:30.534Z,56.70
2018-02-10T01:37:10.203Z,46.33
2018-02-10T01:39:49.094Z,51.08
2018-02-10T01:42:28.606Z,48.80
2018-02-10T01:45:03.589Z,44.22
2018-02-10T01:47:42.733Z,50.10
2018-02-10T01:50:29.531Z,42.35
2018-02-10T01:53:08.705Z,43.78
2018-02-10T01:55:49.090Z,51.58
2018-02-10T01:58:28.028Z,46.90
2018-02-10T02:01:05.592Z,53.72
2018-02-10T02:03:46.877Z,52.47
2018-02-10T02:06:26.280Z,54.08
2018-02-10T02:09:07.332Z,50.15
2018-02-10T02:11:47.692Z,66.35
2018-02-10T02:14:26.913Z,50.20
2018-02-10T02:17:04.216Z,46.65
2018-02-10T02:19:45.072Z,52.70
2018-02-10T02:22:19.934Z,54.10
2018-02-10T02:25:00.880Z,57.40
2018-02-10T02:27:42.238Z,57.83
2018-02-10T02:30:21.707Z,48.55
2018-02-10T02:32:59.557Z,57.95
2018-02-10T02:35:39.690Z,53.67
2018-02-10T02:38:12.573Z,61.50
2018-02-10T02:40:53.532Z,62.20
2018-02-10T02:43:32.371Z,57.03
2018-02-10T02:46:14.021Z,59.05
2018-02-10T02:48:52.110Z,63.13
2018-02-10T02:51:29.755Z,72.45
2018-02-10T02:54:08.106Z,61.13
2018-02-10T02:56:50.037Z,72.68
2018-02-10T02:59:27.573Z,68.87
2018-02-10T03:02:07.767Z,69.95
2018-02-10T03:04:47.650Z,67.32
2018-02-10T03:07:27.167Z,74.20
2018-02-10T03:10:05.284Z,81.30
2018-02-10T03:12:43.395Z,81.55
2018-02-10T03:15:22.492Z,80.47
2018-02-10T03:17:59.905Z,81.22
2018-02-10T03:20:40.864Z,88.72
2018-02-10T03:23:21.651Z,90.15
2018-02-10T03:25:59.984Z,80.57
2018-02-10T03:28:39.102Z,74.40
2018-02-10T03:31:18.910Z,77.57
2018-02-10T03:34:01.975Z,83.18
2018-02-10T03:36:40.955Z,74.65
2018-02-10T03:39:22.025Z,79.75
2018-02-10T03:42:01.117Z,86.68
2018-02-10T03:44:39.904Z,73.75
2018-02-10T03:47:20.013Z,78.70
2018-02-10T03:50:01.933Z,90.60
2018-02-10T03:52:42.101Z,78.93
2018-02-10T03:55:21.289Z,84.32
2018-02-10T03:57:59.124Z,78.78
2018-02-10T04:00:39.124Z,70.85
2018-02-10T04:03:18.260Z,76.28
2018-02-10T04:05:59.067Z,78.35
2018-02-10T04:08:38.707Z,74.93
2018-02-10T04:11:21.802Z,69.18
2018-02-10T04:14:01.449Z,67.12
2018-02-10T04:16:46.717Z,72.35
2018-02-10T04:19:27.463Z,80.18
2018-02-10T04:22:08.170Z,75.18
2018-02-10T04:24:49.268Z,72.18
2018-02-10T04:27:27.929Z,67.85
2018-02-10T04:30:07.339Z,75.57
2018-02-10T04:32:45.374Z,62.62
2018-02-10T04:35:24.273Z,64.30
2018-02-10T04:38:05.755Z,59.55
2018-02-10T04:40:44.817Z,58.22
2018-02-10T04:43:27.466Z,62.22
2018-02-10T04:46:06.888Z,61.47
2018-02-10T04:48:45.133Z,55.25
2018-02-10T04:51:25.341Z,54.20
2018-02-10T04:54:04.553Z,56.75
2018-02-10T04:56:44.276Z,58.35
2018-02-10T04:59:27.303Z,52.60
2018-02-10T05:02:00.904Z,60.63
2018-02-10T05:04:40.247Z,59.28
2018-02-10T05:07:19.295Z,57.17
2018-02-10T05:09:59.699Z,62.62
2018-02-10T05:12:38.040Z,59.47
2018-02-10T05:15:17.918Z,59.53
2018-02-10T05:17:55.536Z,59.10
2018-02-10T05:20:34.877Z,54.05
2018-02-10T05:23:13.928Z,66.40
2018-02-10T05:25:55.299Z,62.28
2018-02-10T05:28:35.004Z,55.75
2018-02-10T05:31:14.347Z,50.95
2018-02-10T05:33:53.496Z,65.25
2018-02-10T05:36:29.189Z,63.28
2018-02-10T05:39:10.059Z,57.75
2018-02-10T05:41:48.825Z,56.25
2018-02-10T05:44:29.752Z,54.22
2018-02-10T05:47:07.537Z,54.13
2018-02-10T05:49:45.110Z,60.75
2018-02-10T05:52:24.114Z,60.08
2018-02-10T05:55:04.379Z,59.97
2018-02-10T05:57:42.704Z,58.17
2018-02-10T06:00:16.917Z,56.78
2018-02-10T06:02:56.610Z,59.33
2018-02-10T06:05:35.656Z,65.45
2018-02-10T06:08:18.295Z,64.32
2018-02-10T06:10:58.631Z,54.85
2018-02-10T06:13:42.529Z,68.00
2018-02-10T06:16:22.482Z,55.88
2018-02-10T06:19:04.552Z,56.35
2018-02-10T06:21:44.595Z,60.42
2018-02-10T06:24:24.248Z,61.83
2018-02-10T06:27:02.770Z,54.22
2018-02-10T06:29:42.962Z,56.42
2018-02-10T06:32:17.665Z,58.05
2018-02-10T06:34:57.338Z,54.75
2018-02-10T06:37:36.220Z,57.78
2018-02-10T06:40:12.523Z,61.80
2018-02-10T06:42:50.842Z,56.33
2018-02-10T06:45:29.874Z,52.05
2018-02-10T06:48:07.700Z,63.22
2018-02-10T06:50:48.369Z,56.08
2018-02-10T06:53:26.632Z,48.42
2018-02-10T06:56:06.209Z,52.60
2018-02-10T06:58:44.550Z,54.13
2018-02-10T07:01:25.775Z,53.80
2018-02-10T07:04:04.583Z,57.85
2018-02-10T07:06:42.475Z,59.65
2018-02-10T07:09:21.017Z,53.67
2018-02-10T07:11:58.351Z,55.63
2018-02-10T07:14:43.614Z,53.67
2018-02-10T07:17:24.668Z,59.50
2018-02-10T07:20:02.535Z,62.95
2018-02-10T07:22:37.348Z,60.20
2018-02-10T07:25:11.126Z,56.08
2018-02-10T07:27:49.986Z,57.20
2018-02-10T07:30:27.233Z,58.33
2018-02-10T07:33:04.547Z,66.62
2018-02-10T07:35:42.888Z,63.42
2018-02-10T07:38:22.406Z,52.40
2018-02-10T07:41:01.746Z,72.22
2018-02-10T07:43:39.481Z,77.82
2018-02-10T07:46:15.580Z,72.30
2018-02-10T07:48:49.999Z,70.32
2018-02-10T07:51:28.984Z,79.18
2018-02-10T07:54:08.017Z,71.50
2018-02-10T07:56:46.561Z,69.10
2018-02-10T08:00:59.582Z,67.70
2018-02-10T08:03:40.822Z,66.93
2018-02-10T08:06:13.291Z,64.70
2018-02-10T08:08:45.437Z,62.92
2018-02-10T08:11:22.838Z,60.97
2018-02-10T08:14:00.965Z,61.45
2018-02-10T08:16:33.903Z,59.78
2018-02-10T08:19:13.543Z,59.88
2018-02-10T08:21:51.842Z,53.65
2018-02-10T08:24:30.021Z,64.00
2018-02-10T08:27:09.482Z,59.17
2018-02-10T08:29:48.109Z,55.28
2018-02-10T08:32:26.849Z,58.08
2018-02-10T08:35:05.781Z,54.75
2018-02-10T08:37:45.317Z,59.50
2018-02-10T08:40:19.125Z,52.67
2018-02-10T08:42:52.951Z,56.37
2018-02-10T08:45:27.595Z,59.42
2018-02-10T08:48:08.614Z,56.63
2018-02-10T08:50:48.003Z,65.72
2018-02-10T08:53:26.222Z,61.65
2018-02-10T08:56:05.565Z,67.40
2018-02-10T08:58:44.468Z,59.28
2018-02-10T09:01:21.988Z,63.70
2018-02-10T09:04:01.450Z,65.30
2018-02-10T09:06:35.917Z,68.18
2018-02-10T09:09:15.288Z,66.00
2018-02-10T09:12:00.213Z,70.25
2018-02-10T09:14:45.648Z,68.60
2018-02-10T09:17:21.397Z,73.47
2018-02-10T09:20:01.347Z,72.03
2018-02-10T09:22:41.160Z,69.85
2018-02-10T09:25:15.060Z,76.25
2018-02-10T09:27:52.208Z,85.75
2018-02-10T09:30:28.236Z,75.87
2018-02-10T09:33:07.187Z,68.60
2018-02-10T09:35:45.481Z,75.00
2018-02-10T09:38:19.160Z,72.70
2018-02-10T09:40:58.355Z,77.00
2018-02-10T09:43:37.392Z,77.82
2018-02-10T09:46:15.310Z,70.00
2018-02-10T09:48:52.921Z,63.35
2018-02-10T09:51:30.545Z,68.87
2018-02-10T09:54:08.767Z,57.08
2018-02-10T09:56:48.101Z,61.53
2018-02-10T09:59:29.884Z,74.37
2018-02-10T10:02:04.694Z,64.00
2018-02-10T10:04:37.103Z,49.90
2018-02-10T10:07:15.349Z,58.05
2018-02-10T10:09:52.874Z,51.58
2018-02-10T10:12:34.403Z,51.85
2018-02-10T10:15:13.072Z,45.63
2018-02-10T10:17:51.711Z,39.63
2018-02-10T10:20:24.418Z,48.75
2018-02-10T10:23:03.303Z,40.30
2018-02-10T10:25:42.162Z,38.13
2018-02-10T10:28:22.313Z,40.40
2018-02-10T10:30:55.780Z,41.80
2018-02-10T10:33:39.210Z,34.72
2018-02-10T10:36:11.742Z,41.78
2018-02-10T10:38:45.488Z,35.15
2018-02-10T10:41:18.951Z,30.95
2018-02-10T10:43:59.164Z,32.03
2018-02-10T10:46:39.191Z,31.05
2018-02-10T10:49:20.375Z,26.52
2018-02-10T10:51:52.774Z,30.52
2018-02-10T10:54:34.658Z,29.95
2018-02-10T10:57:09.255Z,35.40
2018-02-10T10:59:47.478Z,32.90
2018-02-10T11:02:24.604Z,34.88
2018-02-10T11:05:03.813Z,30.20
2018-02-10T11:07:43.966Z,35.75
2018-02-10T11:10:23.016Z,41.05
2018-02-10T11:13:02.108Z,39.08
2018-02-10T11:15:36.726Z,40.33
2018-02-10T11:18:15.940Z,43.38
2018-02-10T11:20:56.904Z,44.15
2018-02-10T11:23:30.015Z,46.80
2018-02-10T11:26:08.379Z,48.75
2018-02-10T11:28:49.447Z,45.05
2018-02-10T11:31:31.052Z,50.05
2018-02-10T11:34:12.147Z,54.15
2018-02-10T11:36:53.569Z,58.67
2018-02-10T11:39:35.142Z,58.90
2018-02-10T11:42:09.545Z,51.05
2018-02-10T11:44:42.457Z,65.22
2018-02-10T11:47:16.437Z,58.35
2018-02-10T11:49:56.359Z,59.00
2018-02-10T11:52:34.821Z,58.60
2018-02-10T11:55:08.654Z,67.97
2018-02-10T11:57:45.780Z,72.50
2018-02-10T12:00:25.356Z,57.62
2018-02-10T12:03:03.412Z,61.45
2018-02-10T12:05:42.740Z,52.22
2018-02-10T12:08:21.747Z,53.85
2018-02-10T12:11:01.964Z,63.87
2018-02-10T12:13:40.800Z,51.67
2018-02-10T12:16:17.343Z,54.85
2018-02-10T12:18:57.533Z,63.63
2018-02-10T12:21:37.868Z,58.85
2018-02-10T12:24:11.071Z,56.47
2018-02-10T12:26:46.927Z,52.47
2018-02-10T12:29:26.777Z,54.55
2018-02-10T12:32:09.980Z,57.55
2018-02-10T12:34:43.184Z,56.95
2018-02-10T12:37:20.917Z,48.50
2018-02-10T12:39:59.949Z,54.92
2018-02-10T12:42:42.883Z,53.80
2018-02-10T12:45:24.528Z,49.50
2018-02-10T12:48:17.998Z,56.30
2018-02-10T12:50:51.944Z,51.75
2018-02-10T12:53:33.422Z,42.35
2018-02-10T12:56:15.240Z,41.83
2018-02-10T12:58:55.184Z,42.67
2018-02-10T13:01:30.760Z,44.35
2018-02-10T13:04:12.604Z,49.28
2018-02-10T13:06:53.482Z,48.25
2018-02-10T13:09:33.068Z,47.00
2018-02-10T13:12:14.259Z,43.65
2018-02-10T13:14:55.455Z,49.05
2018-02-10T13:17:35.037Z,55.53
2018-02-10T13:20:13.891Z,54.00
2018-02-10T13:22:53.678Z,52.22
2018-02-10T13:25:27.500Z,51.47
2018-02-10T13:28:02.560Z,50.72
2018-02-10T13:30:38.740Z,47.13
2018-02-10T13:33:19.487Z,46.85
2018-02-10T13:35:59.697Z,41.00
2018-02-10T13:38:34.973Z,55.70
2018-02-10T13:41:09.788Z,55.22
2018-02-10T13:43:49.113Z,45.50
2018-02-10T13:46:29.424Z,44.92
2018-02-10T13:49:08.648Z,47.78
2018-02-10T13:51:50.231Z,49.67
2018-02-10T13:54:32.706Z,51.13
2018-02-10T13:57:13.715Z,50.35
2018-02-10T13:59:49.421Z,51.85
2018-02-10T14:02:30.301Z,43.85
2018-02-10T14:05:10.835Z,52.95
2018-02-10T14:07:51.794Z,47.85
2018-02-10T14:10:32.351Z,45.65
2018-02-10T14:13:12.465Z,52.55
2018-02-10T14:15:52.585Z,58.28
2018-02-10T14:18:34.450Z,54.15
2018-02-10T14:21:13.752Z,46.97
2018-02-10T14:23:53.931Z,50.65
2018-02-10T14:26:32.718Z,46.60
2018-02-10T14:29:10.413Z,56.17
2018-02-10T14:31:52.040Z,56.00
2018-02-10T14:34:32.326Z,50.10
2018-02-10T14:37:12.480Z,53.78
2018-02-10T14:39:47.059Z,57.88
2018-02-10T14:42:26.408Z,47.58
2018-02-10T14:45:06.518Z,56.97
2018-02-10T14:47:46.806Z,68.93
2018-02-10T14:50:21.901Z,51.67
2018-02-10T14:52:55.025Z,52.95
2018-02-10T14:55:31.777Z,53.15
2018-02-10T14:58:05.706Z,58.30
2018-02-10T15:00:42.992Z,41.72
2018-02-10T15:03:20.637Z,47.03
2018-02-10T15:06:01.923Z,48.83
2018-02-10T15:08:35.623Z,44.63
2018-02-10T15:11:09.179Z,39.22
2018-02-10T15:13:48.074Z,60.60
2018-02-10T15:16:26.412Z,49.65
2018-02-10T15:19:06.235Z,44.78
2018-02-10T15:21:39.683Z,42.28
2018-02-10T15:24:18.655Z,30.95
2018-02-10T15:26:58.300Z,38.33
2018-02-10T15:29:46.085Z,34.10
2018-02-10T15:32:33.412Z,52.38
2018-02-10T15:35:08.105Z,31.85
2018-02-10T15:37:46.460Z,32.60
2018-02-10T15:40:25.514Z,34.13
2018-02-10T15:43:07.218Z,31.02
2018-02-10T15:45:42.238Z,39.45
2018-02-10T15:48:15.962Z,27.23
2018-02-10T15:50:54.357Z,26.40
2018-02-10T15:53:32.786Z,27.25
2018-02-10T15:56:15.178Z,40.80
2018-02-10T15:58:54.699Z,28.83
2018-02-10T16:01:36.797Z,28.27
2018-02-10T16:04:17.791Z,32.72
2018-02-10T16:06:58.887Z,24.05
2018-02-10T16:09:40.711Z,31.35
2018-02-10T16:12:22.498Z,26.90
2018-02-10T16:14:58.762Z,22.05
2018-02-10T16:17:31.931Z,31.37
2018-02-10T16:20:10.169Z,26.52
2018-02-10T16:22:47.833Z,22.77
2018-02-10T16:25:27.664Z,28.67
2018-02-10T16:28:06.998Z,22.15
2018-02-10T16:30:46.705Z,20.48
2018-02-10T16:33:25.059Z,24.20
2018-02-10T16:36:06.787Z,18.98
2018-02-10T16:38:48.204Z,26.95
2018-02-10T16:41:21.635Z,21.02
2018-02-10T16:44:01.542Z,24.27
2018-02-10T16:46:42.429Z,19.50
2018-02-10T16:49:23.209Z,25.58
2018-02-10T16:51:58.044Z,23.40
2018-02-10T16:54:37.278Z,29.58
2018-02-10T16:57:19.396Z,18.25
2018-02-10T16:59:58.161Z,20.58
2018-02-10T17:02:39.253Z,22.85
2018-02-10T17:05:13.953Z,22.48
2018-02-10T17:07:53.732Z,35.33
2018-02-10T17:10:34.950Z,22.15
2018-02-10T17:13:10.910Z,27.95
2018-02-10T17:15:48.985Z,24.65
2018-02-10T17:18:30.963Z,19.45
2018-02-10T17:21:14.564Z,18.90
2018-02-10T17:23:48.933Z,29.23
2018-02-10T17:26:29.471Z,26.77
2018-02-10T17:29:02.666Z,22.48
2018-02-10T17:31:40.940Z,47.05
2018-02-10T17:34:21.327Z,29.52
2018-02-10T17:36:58.443Z,33.33
2018-02-10T17:39:38.523Z,36.40
2018-02-10T17:42:11.961Z,21.08
2018-02-10T17:44:50.791Z,29.60
2018-02-10T17:47:28.926Z,21.45
2018-02-10T17:50:09.762Z,26.70
2018-02-10T17:52:50.138Z,39.42
2018-02-10T17:55:27.140Z,28.65
2018-02-10T17:58:05.805Z,32.78
2018-02-10T18:00:44.838Z,29.65
2018-02-10T18:03:23.127Z,42.28
2018-02-10T18:06:02.396Z,29.00
2018-02-10T18:08:42.785Z,32.17
2018-02-10T18:11:20.566Z,29.50
2018-02-10T18:14:00.408Z,29.17
2018-02-10T18:16:33.743Z,24.58
2018-02-10T18:19:12.931Z,34.00
2018-02-10T18:21:52.260Z,21.05
2018-02-10T18:24:31.439Z,24.50
2018-02-10T18:27:11.908Z,20.88
2018-02-10T18:29:52.917Z,33.38
2018-02-10T18:32:32.209Z,30.83
2018-02-10T18:35:07.324Z,22.73
2018-02-10T18:37:48.442Z,23.62
2018-02-10T18:40:28.687Z,23.98
2018-02-10T18:43:09.772Z,31.50
2018-02-10T18:45:49.961Z,22.87
2018-02-10T18:48:33.335Z,23.17
2018-02-10T18:51:12.406Z,20.80
2018-02-10T18:53:53.510Z,22.13
2018-02-10T18:56:33.400Z,15.70
2018-02-10T18:59:13.527Z,16.98
2018-02-10T19:01:49.559Z,23.60
2018-02-10T19:04:29.219Z,22.67
2018-02-10T19:07:09.126Z,19.05
2018-02-10T19:09:48.457Z,20.70
2018-02-10T19:12:27.495Z,18.52
2018-02-10T19:15:07.185Z,19.42
2018-02-10T19:17:47.174Z,22.17
2018-02-10T19:20:20.082Z,20.20
2018-02-10T19:23:00.254Z,13.62
2018-02-10T19:25:42.487Z,17.65
2018-02-10T19:28:19.887Z,18.20
2018-02-10T19:31:00.196Z,13.60
2018-02-10T19:33:40.371Z,18.75
2018-02-10T19:36:20.318Z,21.85
2018-02-10T19:38:59.088Z,19.92
2018-02-10T19:41:41.040Z,24.63
2018-02-10T19:44:19.776Z,19.33
2018-02-10T19:47:00.913Z,22.40
2018-02-10T19:49:35.247Z,17.70
2018-02-10T19:52:16.453Z,11.70
2018-02-10T19:54:56.163Z,16.73
2018-02-10T19:57:30.474Z,10.95
2018-02-10T20:00:04.135Z,13.82
2018-02-10T20:02:37.671Z,13.05
2018-02-10T20:05:18.845Z,14.57
2018-02-10T20:07:52.534Z,13.18
2018-02-10T20:10:32.343Z,11.20
2018-02-10T20:13:13.144Z,11.45
2018-02-10T20:15:50.337Z,14.32
2018-02-10T20:18:29.259Z,16.40
2018-02-10T20:21:07.927Z,14.13
2018-02-10T20:23:51.944Z,18.50
2018-02-10T20:26:30.439Z,12.50
2018-02-10T20:29:10.962Z,11.12
2018-02-10T20:31:50.432Z,15.13
2018-02-10T20:34:28.473Z,11.30
2018-02-10T20:37:06.320Z,10.95
2018-02-10T20:39:47.787Z,10.43
2018-02-10T20:42:26.184Z,14.32
2018-02-10T20:44:58.830Z,17.62
2018-02-10T20:47:38.302Z,10.40
2018-02-10T20:50:12.782Z,10.73
2018-02-10T20:52:52.529Z,18.77
2018-02-10T20:55:26.595Z,11.20
2018-02-10T20:58:08.533Z,9.25
2018-02-10T21:00:48.737Z,11.68
2018-02-10T21:03:30.036Z,9.38
2018-02-10T21:06:05.206Z,8.02
2018-02-10T21:08:44.780Z,12.55
2018-02-10T21:11:24.466Z,10.75
2018-02-10T21:14:03.706Z,10.13
2018-02-10T21:16:40.377Z,10.32
2018-02-10T21:19:22.107Z,12.27
2018-02-10T21:22:01.363Z,10.13
2018-02-10T21:24:38.853Z,12.73
2018-02-10T21:27:13.701Z,9.52
2018-02-10T21:29:46.311Z,8.25
2018-02-10T21:32:24.659Z,9.90
2018-02-10T21:35:05.019Z,7.70
2018-02-10T21:37:38.928Z,6.43
2018-02-10T21:40:17.224Z,8.75
2018-02-10T21:42:55.703Z,10.63
2018-02-10T21:45:36.525Z,9.60
2018-02-10T21:48:11.089Z,9.35
2018-02-10T21:50:50.866Z,9.80
2018-02-10T21:53:33.184Z,9.65
2018-02-10T21:56:07.279Z,9.18
2018-02-10T21:58:46.822Z,16.08
2018-02-10T22:01:28.004Z,9.35
2018-02-10T22:04:05.472Z,7.65
2018-02-10T22:06:43.532Z,9.18
2018-02-10T22:09:23.218Z,7.90
2018-02-10T22:12:01.529Z,10.95
2018-02-10T22:14:43.095Z,16.75
2018-02-10T22:17:22.999Z,11.30
2018-02-10T22:20:02.418Z,8.50
2018-02-10T22:22:40.482Z,12.50
2018-02-10T22:25:21.251Z,7.90
2018-02-10T22:28:00.312Z,9.45
2018-02-10T22:30:35.947Z,8.30
2018-02-10T22:33:12.991Z,11.75
2018-02-10T22:35:53.727Z,11.15
2018-02-10T22:38:32.211Z,12.90
2018-02-10T22:41:11.632Z,7.60
2018-02-10T22:43:53.445Z,13.10
2018-02-10T22:46:27.323Z,14.18
2018-02-10T22:49:01.985Z,8.90
2018-02-10T22:51:41.313Z,16.00
2018-02-10T22:54:21.401Z,23.98
2018-02-10T22:56:59.179Z,22.17
2018-02-10T22:59:37.890Z,21.20
2018-02-10T23:02:18.286Z,21.12
2018-02-10T23:04:57.596Z,14.63
2018-02-10T23:07:31.809Z,19.33
2018-02-10T23:10:13.713Z,13.88
2018-02-10T23:12:51.938Z,18.62
2018-02-10T23:15:31.514Z,9.70
2018-02-10T23:18:04.779Z,19.98
2018-02-10T23:20:43.614Z,15.93
2018-02-10T23:23:24.183Z,17.48
2018-02-10T23:25:58.559Z,17.98
2018-02-10T23:28:33.575Z,10.68
2018-02-10T23:31:07.830Z,15.60
2018-02-10T23:33:43.358Z,18.33
2018-02-10T23:36:22.139Z,14.40
2018-02-10T23:39:01.392Z,10.32
2018-02-10T23:41:40.887Z,15.32
2018-02-10T23:44:19.962Z,16.95
2018-02-10T23:46:53.379Z,13.20
2018-02-10T23:49:31.237Z,17.50
2018-02-10T23:52:10.591Z,11.35
2018-02-10T23:54:50.347Z,14.32
2018-02-10T23:57:28.281Z,13.10
